Time;durP1;ratioP1;P1;durP2;ratioP2;P2;SDS_P1;SDS_P2;PMS_P1;PMS_P2;Temp;Humidity;BMP_temperature;BMP_pressure;BME280_temperature;BME280_humidity;BME280_pressure;Samples;Min_cycle;Max_cycle;Signal;HPM_P1;HPM_P2
2021/12/23 00:01:46;;;;;;;;;;;17.00;99.90;;;;;;5059570;28;967;-53
2021/12/23 00:04:13;;;;;;;;;;;17.00;99.90;;;;;;5077249;28;1041;-54
2021/12/23 00:06:40;;;;;;;;;;;17.00;99.90;;;;;;5076745;28;878;-54
2021/12/23 00:09:05;;;;;;;;;;;16.90;99.90;;;;;;5072351;28;876;-54
2021/12/23 00:11:32;;;;;;;;;;;16.90;99.90;;;;;;5059292;28;1067;-54
2021/12/23 00:14:06;;;;;;;;;;;16.80;99.90;;;;;;5076584;28;837;-54
2021/12/23 00:19:23;;;;;;;;;;;16.70;99.90;;;;;;5077268;28;964;-54
2021/12/23 00:24:41;;;;;;;;;;;16.60;99.90;;;;;;5071740;28;884;-54
2021/12/23 00:27:07;;;;;;;;;;;16.60;99.90;;;;;;5077034;28;809;-54
2021/12/23 00:29:33;;;;;;;;;;;16.50;99.90;;;;;;5077057;28;872;-53
2021/12/23 00:31:59;;;;;;;;;;;16.50;99.90;;;;;;5069964;28;845;-55
2021/12/23 00:34:26;;;;;;;;;;;16.50;99.90;;;;;;5076772;28;805;-55
2021/12/23 00:36:58;;;;;;;;;;;16.50;99.90;;;;;;5070302;28;1910;-55
2021/12/23 00:39:29;;;;;;;;;;;16.50;99.90;;;;;;5071604;28;919;-57
2021/12/23 00:42:05;;;;;;;;;;;16.50;99.90;;;;;;5076132;28;821;-55
2021/12/23 00:44:32;;;;;;;;;;;16.50;99.90;;;;;;5075885;28;864;-55
2021/12/23 00:46:59;;;;;;;;;;;16.50;99.90;;;;;;5076568;28;800;-55
2021/12/23 00:49:27;;;;;;;;;;;16.50;99.90;;;;;;5075868;28;943;-57
2021/12/23 00:51:54;;;;;;;;;;;16.50;99.90;;;;;;5076380;28;917;-57
2021/12/23 00:54:20;;;;;;;;;;;16.50;99.90;;;;;;5073881;28;1140;-56
2021/12/23 00:56:49;;;;;;;;;;;16.40;99.90;;;;;;5075350;28;1981;-55
2021/12/23 00:59:15;;;;;;;;;;;16.40;99.90;;;;;;5076695;28;815;-56
2021/12/23 01:01:42;;;;;;;;;;;16.40;99.90;;;;;;5058859;28;793;-56
2021/12/23 01:04:08;;;;;;;;;;;16.40;99.90;;;;;;5075806;28;1045;-55
2021/12/23 01:06:33;;;;;;;;;;;16.40;99.90;;;;;;5075013;28;825;-55
2021/12/23 01:09:01;;;;;;;;;;;16.40;99.90;;;;;;5076302;28;837;-56
2021/12/23 01:11:28;;;;;;;;;;;16.40;99.90;;;;;;5073986;28;1336;-56
2021/12/23 01:19:23;;;;;;;;;;;16.30;99.90;;;;;;5076166;28;872;-56
2021/12/23 01:21:49;;;;;;;;;;;16.30;99.90;;;;;;5075747;28;904;-55
2021/12/23 01:24:15;;;;;;;;;;;16.30;99.90;;;;;;5075642;28;918;-56
2021/12/23 01:26:41;;;;;;;;;;;16.30;99.90;;;;;;5075364;28;896;-55
2021/12/23 01:29:07;;;;;;;;;;;16.30;99.90;;;;;;5076003;28;1113;-55
2021/12/23 01:31:38;;;;;;;;;;;16.30;99.90;;;;;;5076268;28;892;-55
2021/12/23 01:34:05;;;;;;;;;;;16.30;99.90;;;;;;5075924;28;920;-55
2021/12/23 01:36:32;;;;;;;;;;;16.30;99.90;;;;;;5074283;28;1898;-55
2021/12/23 01:38:59;;;;;;;;;;;16.30;99.90;;;;;;5075614;28;873;-56
2021/12/23 01:41:28;;;;;;;;;;;16.30;99.90;;;;;;5075606;28;880;-55
2021/12/23 01:43:56;;;;;;;;;;;16.30;99.90;;;;;;5075445;28;947;-56
2021/12/23 01:46:22;;;;;;;;;;;16.30;99.90;;;;;;5075487;28;895;-55
2021/12/23 01:48:48;;;;;;;;;;;16.30;99.90;;;;;;5057635;28;896;-56
2021/12/23 01:51:14;;;;;;;;;;;16.30;99.90;;;;;;5075601;28;853;-55
2021/12/23 01:53:40;;;;;;;;;;;16.30;99.90;;;;;;5075573;28;839;-55
2021/12/23 01:56:06;;;;;;;;;;;16.30;99.90;;;;;;5075437;28;1961;-56
2021/12/23 01:58:38;;;;;;;;;;;16.30;99.90;;;;;;5075710;28;813;-55
2021/12/23 02:01:04;;;;;;;;;;;16.30;99.90;;;;;;5075323;28;938;-56
2021/12/23 02:03:30;;;;;;;;;;;16.30;99.90;;;;;;5075194;28;1152;-55
2021/12/23 02:05:57;;;;;;;;;;;16.30;99.90;;;;;;5075538;28;848;-55
2021/12/23 02:08:25;;;;;;;;;;;16.30;99.90;;;;;;5075633;28;837;-55
2021/12/23 02:10:53;;;;;;;;;;;16.30;99.90;;;;;;5075444;28;856;-55
2021/12/23 02:13:22;;;;;;;;;;;16.30;99.90;;;;;;5075459;28;983;-55
2021/12/23 02:15:48;;;;;;;;;;;16.20;99.90;;;;;;5075321;28;1906;-55
2021/12/23 02:18:14;;;;;;;;;;;16.20;99.90;;;;;;5075057;28;1026;-55
2021/12/23 02:20:40;;;;;;;;;;;16.20;99.90;;;;;;5074712;28;896;-55
2021/12/23 02:23:07;;;;;;;;;;;16.20;99.90;;;;;;5075491;28;1040;-55
2021/12/23 02:25:34;;;;;;;;;;;16.20;99.90;;;;;;5075371;28;1112;-55
2021/12/23 02:28:07;;;;;;;;;;;16.20;99.90;;;;;;5075261;28;909;-55
2021/12/23 02:30:36;;;;;;;;;;;16.20;99.90;;;;;;5074746;28;1065;-55
2021/12/23 02:33:05;;;;;;;;;;;16.20;99.90;;;;;;5075075;28;853;-55
2021/12/23 02:35:31;;;;;;;;;;;16.20;99.90;;;;;;5070576;28;1906;-56
2021/12/23 02:38:02;;;;;;;;;;;16.10;99.90;;;;;;5039490;28;972;-56
2021/12/23 02:40:31;;;;;;;;;;;16.10;99.90;;;;;;5074471;28;946;-55
2021/12/23 02:43:08;;;;;;;;;;;16.10;99.90;;;;;;5057103;28;861;-55
2021/12/23 02:45:35;;;;;;;;;;;16.10;99.90;;;;;;5075569;28;845;-55
2021/12/23 02:48:02;;;;;;;;;;;16.10;99.90;;;;;;5075315;28;1095;-55
2021/12/23 02:50:29;;;;;;;;;;;16.10;99.90;;;;;;5075507;28;809;-55
2021/12/23 02:52:58;;;;;;;;;;;16.10;99.90;;;;;;5074984;28;928;-56
2021/12/23 02:55:25;;;;;;;;;;;16.10;99.90;;;;;;5039424;28;941;-56
2021/12/23 02:57:51;;;;;;;;;;;16.00;99.90;;;;;;5057019;28;1914;-55
2021/12/23 03:00:17;;;;;;;;;;;16.00;99.90;;;;;;5075144;28;975;-55
2021/12/23 03:02:43;;;;;;;;;;;16.00;99.90;;;;;;5074491;28;1376;-54
2021/12/23 03:05:09;;;;;;;;;;;16.00;99.90;;;;;;5076612;28;1219;-53
2021/12/23 03:07:36;;;;;;;;;;;16.00;99.90;;;;;;5078524;28;935;-53
2021/12/23 03:10:05;;;;;;;;;;;16.00;99.90;;;;;;5078533;28;916;-54
2021/12/23 03:12:31;;;;;;;;;;;16.00;99.90;;;;;;5078324;28;887;-53
2021/12/23 03:14:59;;;;;;;;;;;16.00;99.90;;;;;;5077112;28;1532;-54
2021/12/23 03:17:25;;;;;;;;;;;16.00;99.90;;;;;;5078309;28;1913;-54
2021/12/23 03:19:51;;;;;;;;;;;16.00;99.90;;;;;;5077865;28;1233;-53
2021/12/23 03:22:17;;;;;;;;;;;16.00;99.90;;;;;;5078169;28;944;-53
2021/12/23 03:24:43;;;;;;;;;;;16.00;99.90;;;;;;5078217;28;891;-54
2021/12/23 03:27:09;;;;;;;;;;;16.00;99.90;;;;;;5077787;28;901;-54
2021/12/23 03:29:36;;;;;;;;;;;16.00;99.90;;;;;;5060431;28;946;-54
2021/12/23 03:32:04;;;;;;;;;;;16.00;99.90;;;;;;5077868;28;876;-54
2021/12/23 03:34:30;;;;;;;;;;;16.00;99.90;;;;;;5077982;28;904;-53
2021/12/23 03:36:56;;;;;;;;;;;16.00;99.90;;;;;;5035742;28;1906;-54
2021/12/23 03:39:22;;;;;;;;;;;16.00;99.90;;;;;;5036715;28;997;-54
2021/12/23 03:41:48;;;;;;;;;;;16.00;99.90;;;;;;5035875;28;972;-53
2021/12/23 03:44:14;;;;;;;;;;;16.00;99.90;;;;;;5030375;28;1781;-53
2021/12/23 03:46:41;;;;;;;;;;;16.00;99.90;;;;;;5035607;28;921;-53
2021/12/23 03:49:08;;;;;;;;;;;16.00;99.90;;;;;;5032516;28;1059;-53
2021/12/23 03:51:36;;;;;;;;;;;16.00;99.90;;;;;;5035668;28;1032;-53
2021/12/23 03:54:03;;;;;;;;;;;16.00;99.90;;;;;;5035769;28;805;-53
2021/12/23 03:56:29;;;;;;;;;;;16.00;99.90;;;;;;5000422;28;1910;-53
2021/12/23 03:58:56;;;;;;;;;;;16.00;99.90;;;;;;5019533;28;919;-53
2021/12/23 04:01:22;;;;;;;;;;;16.00;99.90;;;;;;5035412;28;917;-53
2021/12/23 04:03:50;;;;;;;;;;;16.00;99.90;;;;;;5035417;28;1319;-53
2021/12/23 04:06:18;;;;;;;;;;;16.00;99.90;;;;;;5034733;28;948;-53
2021/12/23 04:08:45;;;;;;;;;;;16.00;99.90;;;;;;5070584;28;908;-53
2021/12/23 04:11:13;;;;;;;;;;;16.00;99.90;;;;;;5076889;28;829;-53
2021/12/23 04:13:39;;;;;;;;;;;16.00;99.90;;;;;;5077359;28;995;-53
2021/12/23 04:16:05;;;;;;;;;;;16.00;99.90;;;;;;5076122;28;1914;-53
2021/12/23 04:18:31;;;;;;;;;;;16.00;99.90;;;;;;5077511;28;873;-53
2021/12/23 04:20:57;;;;;;;;;;;16.00;99.90;;;;;;5077056;28;821;-53
2021/12/23 04:23:24;;;;;;;;;;;16.00;99.90;;;;;;5076491;28;883;-54
2021/12/23 04:25:52;;;;;;;;;;;16.00;99.90;;;;;;5076922;28;916;-54
2021/12/23 04:28:20;;;;;;;;;;;16.00;99.90;;;;;;5076827;28;880;-54
2021/12/23 04:30:47;;;;;;;;;;;16.00;99.90;;;;;;5058708;28;937;-54
2021/12/23 04:33:15;;;;;;;;;;;16.00;99.90;;;;;;5014800;28;1640;-53
2021/12/23 04:35:41;;;;;;;;;;;16.00;99.90;;;;;;4982999;28;1078;-53
2021/12/23 04:38:07;;;;;;;;;;;16.00;99.90;;;;;;5015050;28;1959;-53
2021/12/23 04:40:36;;;;;;;;;;;16.00;99.90;;;;;;5015095;28;1016;-54
2021/12/23 04:43:03;;;;;;;;;;;16.00;99.90;;;;;;5014998;28;953;-53
2021/12/23 04:45:30;;;;;;;;;;;16.00;99.90;;;;;;5015442;28;860;-53
2021/12/23 04:47:56;;;;;;;;;;;16.00;99.90;;;;;;5015060;28;938;-53
2021/12/23 04:50:23;;;;;;;;;;;16.00;99.90;;;;;;5015357;28;880;-53
2021/12/23 04:52:51;;;;;;;;;;;15.90;99.90;;;;;;5015192;28;936;-54
2021/12/23 04:55:18;;;;;;;;;;;15.90;99.90;;;;;;5014624;28;956;-53
2021/12/23 04:57:46;;;;;;;;;;;16.00;99.90;;;;;;5014655;28;1961;-53
2021/12/23 05:00:14;;;;;;;;;;;15.90;99.90;;;;;;5014703;28;877;-53
2021/12/23 05:02:40;;;;;;;;;;;16.00;99.90;;;;;;4998806;28;892;-53
2021/12/23 05:05:07;;;;;;;;;;;15.90;99.90;;;;;;5067372;28;1049;-53
2021/12/23 05:07:33;;;;;;;;;;;15.90;99.90;;;;;;5075725;28;1683;-53
2021/12/23 05:09:59;;;;;;;;;;;15.90;99.90;;;;;;5076303;28;785;-53
2021/12/23 05:12:25;;;;;;;;;;;15.90;99.90;;;;;;5075673;28;885;-53
2021/12/23 05:14:52;;;;;;;;;;;15.90;99.90;;;;;;5076100;28;934;-53
2021/12/23 05:17:20;;;;;;;;;;;15.90;99.90;;;;;;5076088;28;1971;-54
2021/12/23 05:19:48;;;;;;;;;;;15.90;99.90;;;;;;5075801;28;903;-55
2021/12/23 05:22:14;;;;;;;;;;;15.90;99.90;;;;;;5075955;28;781;-56
2021/12/23 05:24:41;;;;;;;;;;;15.80;99.90;;;;;;5057668;28;1221;-55
2021/12/23 05:27:07;;;;;;;;;;;15.80;99.90;;;;;;5075069;28;956;-56
2021/12/23 05:29:33;;;;;;;;;;;15.80;99.90;;;;;;5075407;28;1072;-55
2021/12/23 05:31:59;;;;;;;;;;;15.70;99.90;;;;;;5075383;28;846;-55
2021/12/23 05:34:25;;;;;;;;;;;15.70;99.90;;;;;;5055978;28;900;-56
2021/12/23 05:36:52;;;;;;;;;;;15.70;99.90;;;;;;5075741;28;1910;-56
2021/12/23 05:39:18;;;;;;;;;;;15.70;99.90;;;;;;5075743;28;877;-55
2021/12/23 05:41:44;;;;;;;;;;;15.70;99.90;;;;;;5075695;28;949;-56
2021/12/23 05:44:10;;;;;;;;;;;15.70;99.90;;;;;;5075899;28;880;-55
2021/12/23 05:46:37;;;;;;;;;;;15.70;99.90;;;;;;5075562;28;1127;-55
2021/12/23 05:49:03;;;;;;;;;;;15.70;99.90;;;;;;5073044;28;946;-55
2021/12/23 05:51:29;;;;;;;;;;;15.70;99.90;;;;;;5075400;28;813;-56
2021/12/23 05:53:56;;;;;;;;;;;15.80;99.90;;;;;;5075229;28;785;-55
2021/12/23 05:56:25;;;;;;;;;;;15.90;99.90;;;;;;5075405;28;1914;-55
2021/12/23 05:58:53;;;;;;;;;;;16.00;99.90;;;;;;5075936;28;829;-55
2021/12/23 06:01:20;;;;;;;;;;;16.10;99.90;;;;;;5075648;28;971;-56
2021/12/23 06:03:46;;;;;;;;;;;16.20;99.90;;;;;;5075583;28;1171;-55
2021/12/23 06:06:13;;;;;;;;;;;16.20;99.90;;;;;;5075267;28;821;-55
2021/12/23 06:08:39;;;;;;;;;;;16.40;99.90;;;;;;5075479;28;801;-56
2021/12/23 06:11:06;;;;;;;;;;;16.50;99.90;;;;;;5075362;28;1076;-55
2021/12/23 06:13:32;;;;;;;;;;;16.60;99.90;;;;;;5074794;28;947;-55
2021/12/23 06:15:58;;;;;;;;;;;16.70;99.90;;;;;;5075546;28;852;-55
2021/12/23 06:18:25;;;;;;;;;;;16.70;99.90;;;;;;5075489;28;1906;-55
2021/12/23 06:20:52;;;;;;;;;;;16.80;99.90;;;;;;5075503;28;849;-56
2021/12/23 06:23:19;;;;;;;;;;;16.90;99.90;;;;;;5075013;28;987;-55
2021/12/23 06:25:45;;;;;;;;;;;16.90;99.90;;;;;;5056932;28;917;-56
2021/12/23 06:28:11;;;;;;;;;;;17.00;99.90;;;;;;5074536;28;889;-55
2021/12/23 06:30:37;;;;;;;;;;;17.00;99.90;;;;;;5075551;28;833;-55
2021/12/23 06:33:03;;;;;;;;;;;17.00;99.90;;;;;;5074377;28;922;-55
2021/12/23 06:35:30;;;;;;;;;;;17.00;99.90;;;;;;5075154;28;816;-55
2021/12/23 06:38:01;;;;;;;;;;;17.10;99.90;;;;;;5074404;28;1910;-55
2021/12/23 06:40:28;;;;;;;;;;;17.10;99.90;;;;;;5078722;28;884;-55
2021/12/23 06:42:56;;;;;;;;;;;17.10;99.90;;;;;;5078586;28;871;-55
2021/12/23 06:45:23;;;;;;;;;;;17.10;99.90;;;;;;5079319;28;834;-55
2021/12/23 06:47:49;;;;;;;;;;;17.10;99.90;;;;;;5060590;28;2811;-56
2021/12/23 06:50:17;;;;;;;;;;;17.10;99.90;;;;;;5043684;28;1041;-55
2021/12/23 06:52:43;;;;;;;;;;;17.10;99.90;;;;;;5078134;28;893;-55
2021/12/23 06:55:11;;;;;;;;;;;17.10;99.90;;;;;;5078895;28;924;-55
2021/12/23 06:57:37;;;;;;;;;;;17.00;99.90;;;;;;5077899;28;1971;-55
2021/12/23 07:00:05;;;;;;;;;;;17.00;99.90;;;;;;5078665;28;814;-55
2021/12/23 07:02:33;;;;;;;;;;;17.00;99.90;;;;;;5078227;28;880;-55
2021/12/23 07:05:00;;;;;;;;;;;16.90;99.90;;;;;;5078113;28;1022;-55
2021/12/23 07:07:29;;;;;;;;;;;16.90;99.90;;;;;;5077178;28;1122;-56
2021/12/23 07:09:56;;;;;;;;;;;16.80;99.90;;;;;;5060793;28;836;-55
2021/12/23 07:12:24;;;;;;;;;;;16.80;99.90;;;;;;5078445;28;833;-55
2021/12/23 07:14:50;;;;;;;;;;;16.80;99.90;;;;;;5078464;28;979;-57
2021/12/23 07:17:17;;;;;;;;;;;16.70;99.90;;;;;;5078582;28;1914;-56
2021/12/23 07:19:43;;;;;;;;;;;16.60;99.90;;;;;;5077914;28;1201;-56
2021/12/23 07:22:09;;;;;;;;;;;16.60;99.90;;;;;;5077428;28;901;-55
2021/12/23 07:24:35;;;;;;;;;;;16.50;99.90;;;;;;5078348;28;816;-56
2021/12/23 07:27:02;;;;;;;;;;;16.50;99.90;;;;;;5077444;28;869;-56
2021/12/23 07:29:29;;;;;;;;;;;16.50;99.90;;;;;;5077793;28;997;-56
2021/12/23 07:31:57;;;;;;;;;;;16.40;99.90;;;;;;5078235;28;955;-57
2021/12/23 07:34:24;;;;;;;;;;;16.40;99.90;;;;;;5059505;28;1209;-56
2021/12/23 07:36:50;;;;;;;;;;;16.40;99.90;;;;;;5077716;28;1905;-56
2021/12/23 07:39:16;;;;;;;;;;;16.40;99.90;;;;;;5077606;28;825;-56
2021/12/23 07:41:42;;;;;;;;;;;16.40;99.90;;;;;;5078034;28;958;-55
2021/12/23 07:44:09;;;;;;;;;;;16.40;99.90;;;;;;5078214;28;907;-55
2021/12/23 07:46:37;;;;;;;;;;;16.50;99.90;;;;;;5077416;28;882;-56
2021/12/23 07:49:04;;;;;;;;;;;16.50;99.90;;;;;;5077715;28;869;-56
2021/12/23 07:51:30;;;;;;;;;;;16.60;99.90;;;;;;5077458;28;833;-55
2021/12/23 07:53:58;;;;;;;;;;;16.70;99.90;;;;;;5076432;28;1008;-56
2021/12/23 07:56:25;;;;;;;;;;;16.70;99.90;;;;;;5077460;28;1975;-56
2021/12/23 07:58:51;;;;;;;;;;;16.80;99.90;;;;;;5072921;28;860;-56
2021/12/23 08:01:18;;;;;;;;;;;16.90;99.90;;;;;;5077624;28;888;-55
2021/12/23 08:03:44;;;;;;;;;;;16.90;99.90;;;;;;5076469;28;1426;-56
2021/12/23 08:06:10;;;;;;;;;;;17.00;99.90;;;;;;5077199;28;806;-56
2021/12/23 08:08:37;;;;;;;;;;;17.00;99.90;;;;;;5077375;28;872;-57
2021/12/23 08:11:06;;;;;;;;;;;17.00;99.90;;;;;;5077319;28;892;-59
2021/12/23 08:13:33;;;;;;;;;;;17.00;99.90;;;;;;5074423;28;1725;-56
2021/12/23 08:16:01;;;;;;;;;;;17.00;99.90;;;;;;5059291;28;1341;-56
2021/12/23 08:18:28;;;;;;;;;;;17.00;99.90;;;;;;5076426;28;1906;-57
2021/12/23 08:20:54;;;;;;;;;;;17.10;99.90;;;;;;5076830;28;976;-57
2021/12/23 08:23:21;;;;;;;;;;;17.00;99.90;;;;;;5074456;28;1369;-56
2021/12/23 08:25:47;;;;;;;;;;;16.80;99.90;;;;;;5076861;28;870;-56
2021/12/23 08:28:13;;;;;;;;;;;16.80;99.90;;;;;;5076777;28;869;-55
2021/12/23 08:30:40;;;;;;;;;;;16.70;99.90;;;;;;5058425;28;1246;-56
2021/12/23 08:33:06;;;;;;;;;;;16.60;99.90;;;;;;5076423;28;904;-56
2021/12/23 08:35:33;;;;;;;;;;;16.50;99.90;;;;;;5059625;28;945;-56
2021/12/23 08:38:00;;;;;;;;;;;16.40;99.90;;;;;;5076555;28;1910;-56
2021/12/23 08:40:27;;;;;;;;;;;16.40;99.90;;;;;;5076378;28;867;-56
2021/12/23 08:42:54;;;;;;;;;;;16.30;99.90;;;;;;5076583;28;903;-56
2021/12/23 08:45:20;;;;;;;;;;;16.20;99.90;;;;;;5075950;28;905;-55
2021/12/23 08:47:46;;;;;;;;;;;16.20;99.90;;;;;;5074792;28;1230;-53
2021/12/23 08:50:14;;;;;;;;;;;16.20;99.90;;;;;;5075897;28;908;-53
2021/12/23 08:52:40;;;;;;;;;;;16.20;99.90;;;;;;5072882;28;913;-55
2021/12/23 08:55:07;;;;;;;;;;;16.20;99.90;;;;;;5076271;28;845;-53
2021/12/23 08:57:33;;;;;;;;;;;16.20;99.90;;;;;;5054852;28;1979;-53
2021/12/23 08:59:59;;;;;;;;;;;16.20;99.90;;;;;;5075045;28;1470;-53
2021/12/23 09:02:25;;;;;;;;;;;16.20;99.90;;;;;;5075218;28;846;-53
2021/12/23 09:04:51;;;;;;;;;;;16.20;99.90;;;;;;5075105;28;1079;-53
2021/12/23 09:07:17;;;;;;;;;;;16.30;99.90;;;;;;5076117;28;911;-53
2021/12/23 09:09:50;;;;;;;;;;;16.30;99.90;;;;;;5075700;28;1067;-55
2021/12/23 09:12:17;;;;;;;;;;;16.30;99.90;;;;;;5076061;28;816;-55
2021/12/23 09:14:43;;;;;;;;;;;16.30;99.90;;;;;;5076140;28;880;-57
2021/12/23 09:17:09;;;;;;;;;;;16.40;99.90;;;;;;5075680;28;1914;-56
2021/12/23 09:19:35;;;;;;;;;;;16.40;99.90;;;;;;5076033;28;1125;-55
2021/12/23 09:22:02;;;;;;;;;;;16.40;99.90;;;;;;5075607;28;1234;-56
2021/12/23 09:24:31;;;;;;;;;;;16.50;99.90;;;;;;5075023;28;1464;-57
2021/12/23 09:27:57;;;;;;;;;;;16.50;99.90;;;;;;5075376;28;925;-56
2021/12/23 09:34:55;;;;;;;;;;;16.60;99.90;;;;;;5075830;28;894;-54
2021/12/23 09:37:21;;;;;;;;;;;16.60;99.90;;;;;;5075558;28;1914;-53
2021/12/23 09:39:53;;;;;;;;;;;16.50;99.90;;;;;;5075766;28;765;-53
2021/12/23 09:42:20;;;;;;;;;;;16.50;99.90;;;;;;5075244;28;916;-53
2021/12/23 09:44:47;;;;;;;;;;;16.50;99.90;;;;;;5075012;28;943;-53
2021/12/23 09:47:13;;;;;;;;;;;16.50;99.90;;;;;;5075071;28;996;-53
2021/12/23 09:49:39;;;;;;;;;;;16.40;99.90;;;;;;5075244;28;901;-53
2021/12/23 09:52:07;;;;;;;;;;;16.40;99.90;;;;;;5075180;28;849;-53
2021/12/23 09:54:34;;;;;;;;;;;16.30;99.90;;;;;;5075645;28;943;-53
2021/12/23 09:57:01;;;;;;;;;;;16.30;99.90;;;;;;5075725;28;1902;-53
2021/12/23 09:59:27;;;;;;;;;;;16.30;99.90;;;;;;5074589;28;828;-53
2021/12/23 10:01:55;;;;;;;;;;;16.30;99.90;;;;;;5075136;28;912;-53
2021/12/23 10:04:21;;;;;;;;;;;16.30;99.90;;;;;;5075326;28;1100;-53
2021/12/23 10:06:48;;;;;;;;;;;16.40;99.90;;;;;;5075350;28;837;-53
2021/12/23 10:09:25;;;;;;;;;;;16.50;99.90;;;;;;5056558;28;1126;-53
2021/12/23 10:12:43;;;;;;;;;;;16.70;99.90;;;;;;5054333;28;1782;-56
2021/12/23 10:31:59;;;;;;;;;;;18.00;99.90;;;;;;5079275;28;878;-53
2021/12/23 10:37:13;;;;;;;;;;;18.10;99.90;;;;;;5076175;28;832;-53
2021/12/23 10:37:22;;;;;;;;;;;18.10;99.90;;;;;;5078771;28;1967;-53
2021/12/23 10:39:50;;;;;;;;;;;18.20;99.90;;;;;;5078473;28;1134;-53
2021/12/23 10:42:16;;;;;;;;;;;18.30;99.90;;;;;;5077183;28;1142;-53
2021/12/23 10:44:49;;;;;;;;;;;18.30;99.90;;;;;;5077978;28;1138;-53
2021/12/23 10:47:35;;;;;;;;;;;18.30;99.90;;;;;;5078995;28;888;-53
2021/12/23 10:50:21;;;;;;;;;;;18.30;99.90;;;;;;5078243;28;1166;-53
2021/12/23 10:52:48;;;;;;;;;;;18.30;99.90;;;;;;5076634;28;1205;-53
2021/12/23 11:00:34;;;;;;;;;;;18.30;99.90;;;;;;5077748;28;1340;-55
2021/12/23 11:03:06;;;;;;;;;;;18.20;99.90;;;;;;5077151;28;1404;-55
2021/12/23 11:05:38;;;;;;;;;;;18.20;99.90;;;;;;5077818;28;1297;-55
2021/12/23 11:08:17;;;;;;;;;;;18.30;99.90;;;;;;5076537;28;1204;-55
2021/12/23 11:35:50;;;;;;;;;;;17.70;99.90;;;;;;5078356;28;883;-53
2021/12/23 11:38:40;;;;;;;;;;;17.60;99.90;;;;;;5060223;28;1906;-53
2021/12/23 11:44:08;;;;;;;;;;;17.50;99.90;;;;;;5019252;28;1361;-53
2021/12/23 11:46:46;;;;;;;;;;;17.40;99.90;;;;;;5078156;28;845;-54
2021/12/23 11:49:14;;;;;;;;;;;17.30;99.90;;;;;;5077586;28;891;-54
2021/12/23 11:54:09;;;;;;;;;;;17.20;99.90;;;;;;5077740;28;893;-54
2021/12/23 11:56:37;;;;;;;;;;;17.10;99.90;;;;;;5077947;28;872;-54
2021/12/23 11:59:03;;;;;;;;;;;17.10;99.90;;;;;;5077760;28;1973;-54
2021/12/23 12:01:31;;;;;;;;;;;17.10;99.90;;;;;;5077569;28;825;-54
2021/12/23 12:04:02;;;;;;;;;;;17.10;99.90;;;;;;5076749;28;1099;-54
2021/12/23 12:06:30;;;;;;;;;;;17.00;99.90;;;;;;5077529;28;885;-54
2021/12/23 12:09:09;;;;;;;;;;;17.00;99.90;;;;;;5074752;28;1033;-54
2021/12/23 12:11:35;;;;;;;;;;;17.00;99.90;;;;;;5074912;28;904;-54
2021/12/23 12:14:01;;;;;;;;;;;17.00;99.90;;;;;;5076120;28;1304;-54
2021/12/23 12:16:35;;;;;;;;;;;17.00;99.90;;;;;;5059928;28;861;-54
2021/12/23 12:19:02;;;;;;;;;;;17.00;99.90;;;;;;5077135;28;1918;-54
2021/12/23 12:21:31;;;;;;;;;;;17.00;99.90;;;;;;5059087;28;1254;-54
2021/12/23 12:24:06;;;;;;;;;;;17.00;99.90;;;;;;5076447;28;827;-54
2021/12/23 12:26:34;;;;;;;;;;;17.00;99.90;;;;;;5077386;28;864;-54
2021/12/23 12:29:04;;;;;;;;;;;16.90;99.90;;;;;;5077166;28;913;-54
2021/12/23 12:31:38;;;;;;;;;;;16.90;99.90;;;;;;5076121;28;942;-54
2021/12/23 12:34:06;;;;;;;;;;;16.90;99.90;;;;;;5076801;28;817;-54
2021/12/23 12:36:39;;;;;;;;;;;16.90;99.90;;;;;;5075150;28;981;-54
2021/12/23 12:39:08;;;;;;;;;;;16.80;99.90;;;;;;5074667;28;1951;-54
2021/12/23 12:41:35;;;;;;;;;;;16.80;99.90;;;;;;5076750;28;797;-54
2021/12/23 12:44:06;;;;;;;;;;;16.80;99.90;;;;;;5076008;28;885;-54
2021/12/23 12:47:03;;;;;;;;;;;16.70;99.90;;;;;;5076116;28;1617;-54
2021/12/23 12:49:29;;;;;;;;;;;16.70;99.90;;;;;;5075062;28;1358;-54
2021/12/23 12:52:19;;;;;;;;;;;16.70;99.90;;;;;;5076509;28;979;-54
2021/12/23 12:54:46;;;;;;;;;;;16.60;99.90;;;;;;5060621;28;1295;-54
2021/12/23 12:57:21;;;;;;;;;;;16.60;99.90;;;;;;5058837;28;1599;-53
2021/12/23 12:59:48;;;;;;;;;;;16.60;99.90;;;;;;5049369;28;933;-53
2021/12/23 13:02:22;;;;;;;;;;;16.50;99.90;;;;;;5049174;28;844;-53
2021/12/23 13:04:50;;;;;;;;;;;16.50;99.90;;;;;;5056200;28;1014;-54
2021/12/23 13:07:25;;;;;;;;;;;16.50;99.90;;;;;;5054342;28;932;-53
2021/12/23 13:10:00;;;;;;;;;;;16.40;99.90;;;;;;5053806;28;860;-54
2021/12/23 13:12:44;;;;;;;;;;;16.40;99.90;;;;;;5054623;28;1242;-53
2021/12/23 13:15:21;;;;;;;;;;;16.50;99.90;;;;;;5055204;28;1914;-54
2021/12/23 13:17:55;;;;;;;;;;;16.50;99.90;;;;;;5071944;28;1194;-53
2021/12/23 13:20:41;;;;;;;;;;;16.50;99.90;;;;;;5055757;28;1220;-53
2021/12/23 13:23:32;;;;;;;;;;;16.50;99.90;;;;;;5054492;28;1218;-53
2021/12/23 13:26:06;;;;;;;;;;;16.50;99.90;;;;;;5052657;28;1200;-53
2021/12/23 13:28:41;;;;;;;;;;;16.50;99.90;;;;;;5055689;28;1413;-53
2021/12/23 13:31:14;;;;;;;;;;;16.40;99.90;;;;;;5057270;28;1227;-54
2021/12/23 13:33:42;;;;;;;;;;;16.40;99.90;;;;;;5052352;28;1327;-53
2021/12/23 13:36:32;;;;;;;;;;;16.50;99.90;;;;;;5058319;28;1902;-54
2021/12/23 13:39:03;;;;;;;;;;;16.50;99.90;;;;;;5068196;28;1470;-54
2021/12/23 13:41:30;;;;;;;;;;;16.60;99.90;;;;;;5046265;28;806;-53
2021/12/23 13:44:00;;;;;;;;;;;16.60;99.90;;;;;;5058891;28;1116;-53
2021/12/23 13:46:28;;;;;;;;;;;16.70;99.90;;;;;;5046982;28;856;-55
2021/12/23 13:49:03;;;;;;;;;;;16.70;99.90;;;;;;5053037;28;880;-53
2021/12/23 13:51:33;;;;;;;;;;;16.60;99.90;;;;;;5051992;28;915;-55
2021/12/23 13:54:14;;;;;;;;;;;16.60;99.90;;;;;;5053787;28;1071;-54
2021/12/23 13:56:43;;;;;;;;;;;16.60;99.90;;;;;;5060611;28;1899;-54
2021/12/23 13:59:12;;;;;;;;;;;16.70;99.90;;;;;;5045840;28;1255;-54
2021/12/23 14:01:59;;;;;;;;;;;16.70;99.90;;;;;;5045825;28;1253;-54
2021/12/23 14:04:35;;;;;;;;;;;16.70;99.90;;;;;;5050691;28;1652;-54
2021/12/23 14:07:11;;;;;;;;;;;16.80;99.90;;;;;;5043208;28;1313;-54
2021/12/23 14:09:43;;;;;;;;;;;17.00;99.90;;;;;;5031210;28;1465;-54
2021/12/23 14:12:12;;;;;;;;;;;17.20;99.90;;;;;;5038350;28;967;-53
2021/12/23 14:14:54;;;;;;;;;;;17.30;99.90;;;;;;5036163;28;1580;-53
2021/12/23 14:17:28;;;;;;;;;;;17.40;99.90;;;;;;5038350;28;1964;-53
2021/12/23 14:25:33;;;;;;;;;;;17.30;99.90;;;;;;5034270;28;1331;-53
2021/12/23 14:27:59;;;;;;;;;;;17.30;99.90;;;;;;5039044;28;1328;-54
2021/12/23 14:30:55;;;;;;;;;;;17.50;99.90;;;;;;5038715;28;1041;-55
2021/12/23 14:33:42;;;;;;;;;;;17.50;99.90;;;;;;5041475;28;1382;-54
2021/12/23 14:36:29;;;;;;;;;;;17.10;99.90;;;;;;5036170;28;1906;-54
2021/12/23 14:39:04;;;;;;;;;;;16.50;99.90;;;;;;5039902;28;1037;-54
2021/12/23 14:41:35;;;;;;;;;;;16.10;99.90;;;;;;5034008;28;1319;-54
2021/12/23 14:44:10;;;;;;;;;;;16.10;99.90;;;;;;5052435;28;1179;-55
2021/12/23 14:46:38;;;;;;;;;;;16.40;99.90;;;;;;5024540;28;1235;-54
2021/12/23 14:51:33;;;;;;;;;;;16.90;99.90;;;;;;5047033;28;1206;-54
2021/12/23 14:54:07;;;;;;;;;;;17.10;99.90;;;;;;5046734;28;965;-54
2021/12/23 14:56:34;;;;;;;;;;;17.20;99.90;;;;;;5040567;28;1910;-55
2021/12/23 14:59:11;;;;;;;;;;;17.20;99.90;;;;;;5037561;28;1426;-55
2021/12/23 15:01:38;;;;;;;;;;;17.20;99.90;;;;;;5040540;28;1632;-55
2021/12/23 15:04:09;;;;;;;;;;;17.30;99.90;;;;;;5038857;28;1485;-55
2021/12/23 15:06:55;;;;;;;;;;;17.30;99.90;;;;;;5040413;28;1506;-54
2021/12/23 15:09:22;;;;;;;;;;;17.40;99.90;;;;;;5037788;28;1418;-54
2021/12/23 15:11:48;;;;;;;;;;;17.50;99.90;;;;;;5039386;28;1453;-54
2021/12/23 15:14:16;;;;;;;;;;;17.70;99.90;;;;;;5038672;28;1358;-54
2021/12/23 15:16:42;;;;;;;;;;;17.80;99.90;;;;;;5038164;28;2009;-55
2021/12/23 15:21:49;;;;;;;;;;;17.90;99.90;;;;;;5043800;28;1231;-55
2021/12/23 15:24:21;;;;;;;;;;;18.00;99.90;;;;;;5037727;28;1498;-53
2021/12/23 15:26:53;;;;;;;;;;;18.10;99.90;;;;;;5049655;28;1482;-54
2021/12/23 15:29:21;;;;;;;;;;;18.20;99.90;;;;;;5036881;28;1723;-54
2021/12/23 15:32:02;;;;;;;;;;;18.30;99.90;;;;;;5038432;28;1482;-54
2021/12/23 15:34:29;;;;;;;;;;;18.40;99.90;;;;;;5035532;28;1633;-56
2021/12/23 15:36:56;;;;;;;;;;;18.30;99.90;;;;;;5032433;28;1909;-54
2021/12/23 15:39:28;;;;;;;;;;;18.20;99.90;;;;;;5035834;28;1634;-55
2021/12/23 15:41:54;;;;;;;;;;;18.20;99.90;;;;;;5036179;28;1378;-54
2021/12/23 15:44:22;;;;;;;;;;;18.20;99.90;;;;;;5037296;28;1422;-55
2021/12/23 15:46:50;;;;;;;;;;;18.10;99.90;;;;;;5036157;28;1390;-54
2021/12/23 15:49:16;;;;;;;;;;;18.10;99.90;;;;;;5036299;28;1469;-54
2021/12/23 15:51:43;;;;;;;;;;;18.00;99.90;;;;;;5034643;28;1406;-54
2021/12/23 15:54:09;;;;;;;;;;;18.00;99.90;;;;;;5036762;28;1434;-54
2021/12/23 15:56:35;;;;;;;;;;;18.10;99.90;;;;;;5034844;28;1914;-54
2021/12/23 15:59:02;;;;;;;;;;;18.20;99.90;;;;;;5030495;28;1124;-54
2021/12/23 16:01:28;;;;;;;;;;;18.20;99.90;;;;;;5036290;28;1667;-54
2021/12/23 16:03:55;;;;;;;;;;;18.30;99.90;;;;;;5035446;28;1446;-54
2021/12/23 16:09:05;;;;;;;;;;;18.40;99.90;;;;;;5044750;28;1231;-54